Time;durP1;ratioP1;P1;durP2;ratioP2;P2;SDS_P1;SDS_P2;PMS_P1;PMS_P2;Temp;Humidity;BMP_temperature;BMP_pressure;BME280_temperature;BME280_humidity;BME280_pressure;Samples;Min_cycle;Max_cycle;Signal;HPM_P1;HPM_P2
2022/06/15 00:01:12;;;;;;;0.80;0.60;;;15.50;99.90;;;;;;5094499;28;20403;-72
2022/06/15 00:03:38;;;;;;;0.80;0.60;;;15.50;99.90;;;;;;5094215;28;20563;-72
2022/06/15 00:06:16;;;;;;;0.80;0.63;;;15.40;99.90;;;;;;5092963;28;20431;-72
2022/06/15 00:08:43;;;;;;;0.80;0.50;;;15.40;99.90;;;;;;5092938;28;20468;-72
2022/06/15 00:11:13;;;;;;;0.97;0.77;;;15.40;99.90;;;;;;5092689;28;21047;-72
2022/06/15 00:13:38;;;;;;;1.10;1.00;;;15.40;99.90;;;;;;5093837;28;20502;-72
2022/06/15 00:16:05;;;;;;;1.00;0.60;;;15.30;99.90;;;;;;5093085;28;21318;-72
2022/06/15 00:18:31;;;;;;;0.80;0.60;;;15.30;99.90;;;;;;5093988;28;20181;-73
2022/06/15 00:20:58;;;;;;;0.80;0.63;;;15.30;99.90;;;;;;5093580;28;20407;-71
2022/06/15 00:23:27;;;;;;;1.10;0.70;;;15.30;99.90;;;;;;5093641;28;20499;-72
2022/06/15 00:25:53;;;;;;;0.80;0.60;;;15.20;99.90;;;;;;5092737;28;20407;-72
2022/06/15 00:28:20;;;;;;;0.80;0.70;;;15.20;99.90;;;;;;5092161;28;20434;-70
2022/06/15 00:30:49;;;;;;;0.80;0.60;;;15.20;99.90;;;;;;5093315;28;20415;-72
2022/06/15 00:33:15;;;;;;;3.80;1.17;;;15.10;99.90;;;;;;5092740;28;20485;-72
2022/06/15 00:35:41;;;;;;;1.10;0.80;;;15.10;99.90;;;;;;5093046;28;20396;-73
2022/06/15 00:38:07;;;;;;;0.80;0.60;;;15.10;99.90;;;;;;5093779;28;20419;-72
2022/06/15 00:40:34;;;;;;;0.80;0.60;;;15.10;99.90;;;;;;5093671;28;20262;-72
2022/06/15 00:43:00;;;;;;;0.80;0.60;;;15.00;99.90;;;;;;5093674;28;20823;-73
2022/06/15 00:45:26;;;;;;;0.80;0.60;;;15.00;99.90;;;;;;5093221;28;20404;-72
2022/06/15 00:47:52;;;;;;;0.93;0.83;;;15.00;99.90;;;;;;5093580;28;20469;-72
2022/06/15 00:50:23;;;;;;;0.90;0.73;;;15.00;99.90;;;;;;5093275;28;20168;-73
2022/06/15 00:52:58;;;;;;;0.90;0.80;;;14.90;99.90;;;;;;5092427;28;20441;-72
2022/06/15 00:55:29;;;;;;;1.00;0.90;;;14.90;99.90;;;;;;5093367;28;20427;-72
2022/06/15 00:57:55;;;;;;;1.37;1.27;;;14.90;99.90;;;;;;5092232;28;20431;-72
2022/06/15 01:00:21;;;;;;;0.80;0.60;;;14.80;99.90;;;;;;5092366;28;20469;-72
2022/06/15 01:02:47;;;;;;;0.90;0.80;;;14.80;99.90;;;;;;5093868;28;20411;-72
2022/06/15 01:05:40;;;;;;;0.80;0.60;;;14.80;99.90;;;;;;5093598;28;20893;-73
2022/06/15 01:08:15;;;;;;;1.30;1.20;;;14.70;99.90;;;;;;5093949;28;20395;-73
2022/06/15 01:10:59;;;;;;;0.80;0.60;;;14.70;99.90;;;;;;5093730;28;20391;-72
2022/06/15 01:13:30;;;;;;;1.20;0.90;;;14.60;99.90;;;;;;5094076;28;20797;-71
2022/06/15 01:16:11;;;;;;;2.30;2.10;;;14.60;99.90;;;;;;5093408;28;20400;-72
2022/06/15 01:19:05;;;;;;;1.20;0.63;;;14.60;99.90;;;;;;5093859;28;20422;-73
2022/06/15 01:21:49;;;;;;;0.80;0.60;;;14.50;99.90;;;;;;5092606;28;20407;-72
2022/06/15 01:24:16;;;;;;;0.80;0.60;;;14.50;99.90;;;;;;5092300;28;20455;-72
2022/06/15 01:27:15;;;;;;;2.10;1.13;;;14.40;99.90;;;;;;5092526;28;20427;-72
2022/06/15 01:30:02;;;;;;;0.97;0.70;;;14.40;99.90;;;;;;5093943;28;20415;-72
2022/06/15 01:32:46;;;;;;;1.77;0.80;;;14.40;99.90;;;;;;5093756;28;20399;-72
2022/06/15 01:35:23;;;;;;;1.00;0.90;;;14.30;99.90;;;;;;5093347;28;20403;-72
2022/06/15 01:37:58;;;;;;;1.00;0.73;;;14.30;99.90;;;;;;5075931;28;20432;-73
2022/06/15 01:40:36;;;;;;;0.90;0.60;;;14.20;99.90;;;;;;5073768;28;20983;-73
2022/06/15 01:43:14;;;;;;;0.80;0.60;;;14.20;99.90;;;;;;5072481;28;20778;-72
2022/06/15 01:45:42;;;;;;;1.93;0.80;;;14.20;99.90;;;;;;5072285;28;20431;-72
2022/06/15 01:48:11;;;;;;;1.27;1.17;;;14.20;99.90;;;;;;5072592;28;20541;-72
2022/06/15 01:50:42;;;;;;;0.90;0.60;;;14.10;99.90;;;;;;5073562;28;20434;-72
2022/06/15 01:53:22;;;;;;;1.50;0.70;;;14.10;99.90;;;;;;5072220;28;20412;-72
2022/06/15 01:55:56;;;;;;;0.90;0.60;;;14.10;99.90;;;;;;5078527;28;20404;-72
2022/06/15 01:58:27;;;;;;;0.83;0.70;;;14.00;99.90;;;;;;5095870;28;20754;-71
2022/06/15 02:01:20;;;;;;;1.20;1.10;;;14.00;99.90;;;;;;5097667;28;20388;-72
2022/06/15 02:03:58;;;;;;;0.80;0.73;;;14.00;99.90;;;;;;5088531;28;20512;-72
2022/06/15 02:06:57;;;;;;;0.80;0.60;;;14.00;99.90;;;;;;5090023;28;20511;-71
2022/06/15 02:09:53;;;;;;;0.80;0.70;;;13.90;99.90;;;;;;5075818;28;20412;-72
2022/06/15 02:12:27;;;;;;;0.80;0.60;;;13.90;99.90;;;;;;5076549;28;20495;-72
2022/06/15 02:14:58;;;;;;;0.90;0.80;;;13.80;99.90;;;;;;5076662;28;20404;-73
2022/06/15 02:17:33;;;;;;;0.80;0.53;;;13.80;99.90;;;;;;5090847;28;20489;-72
2022/06/15 02:20:08;;;;;;;1.23;1.00;;;13.80;99.90;;;;;;5097461;28;20403;-72
2022/06/15 02:22:35;;;;;;;1.27;1.00;;;13.80;99.90;;;;;;5097647;28;20835;-72
2022/06/15 02:25:07;;;;;;;0.90;0.60;;;13.70;99.90;;;;;;5095619;28;20860;-72
2022/06/15 02:27:34;;;;;;;0.80;0.50;;;13.70;99.90;;;;;;5080951;28;20519;-72
2022/06/15 02:30:06;;;;;;;0.80;0.50;;;13.70;99.90;;;;;;5076684;28;20471;-73
2022/06/15 02:32:31;;;;;;;1.30;0.93;;;13.70;99.90;;;;;;5075114;28;20409;-72
2022/06/15 02:34:57;;;;;;;0.80;0.60;;;13.60;99.90;;;;;;5076766;28;20435;-72
2022/06/15 02:37:23;;;;;;;0.90;0.60;;;13.60;99.90;;;;;;5090160;28;20531;-71
2022/06/15 02:39:48;;;;;;;0.80;0.50;;;13.60;99.90;;;;;;5096513;28;20177;-73
2022/06/15 02:42:25;;;;;;;0.90;0.60;;;13.60;99.90;;;;;;5095644;28;20177;-73
2022/06/15 02:44:54;;;;;;;0.90;0.80;;;13.60;99.90;;;;;;5095073;28;20749;-73
2022/06/15 02:47:22;;;;;;;0.80;0.60;;;13.50;99.90;;;;;;5083284;28;20437;-73
2022/06/15 02:49:51;;;;;;;0.90;0.80;;;13.50;99.90;;;;;;5075088;28;20438;-73
2022/06/15 02:52:20;;;;;;;1.10;0.60;;;13.50;99.90;;;;;;5075801;28;20487;-73
2022/06/15 02:54:50;;;;;;;0.80;0.60;;;13.50;99.90;;;;;;5072676;28;20481;-73
2022/06/15 02:57:18;;;;;;;1.10;1.00;;;13.50;99.90;;;;;;5086964;28;20539;-72
2022/06/15 02:59:45;;;;;;;1.27;0.90;;;13.40;99.90;;;;;;5096122;28;20817;-72
2022/06/15 03:02:15;;;;;;;1.07;0.77;;;13.40;99.90;;;;;;5096244;28;20404;-72
2022/06/15 03:04:44;;;;;;;2.40;0.90;;;13.40;99.90;;;;;;5095578;28;20520;-72
2022/06/15 03:07:11;;;;;;;1.00;0.70;;;13.30;99.90;;;;;;5095593;28;20430;-72
2022/06/15 03:09:39;;;;;;;0.90;0.80;;;13.30;99.90;;;;;;5095752;28;20399;-72
2022/06/15 03:12:06;;;;;;;1.27;1.17;;;13.20;99.90;;;;;;5095578;28;20407;-73
2022/06/15 03:14:33;;;;;;;1.20;0.93;;;13.30;99.90;;;;;;5091601;28;20443;-71
2022/06/15 03:16:59;;;;;;;1.83;0.80;;;13.20;99.90;;;;;;5074130;28;20963;-73
2022/06/15 03:19:25;;;;;;;1.10;0.87;;;13.20;99.90;;;;;;5075636;28;20409;-72
2022/06/15 03:21:50;;;;;;;1.40;1.30;;;13.20;99.90;;;;;;5075820;28;20412;-72
2022/06/15 03:24:16;;;;;;;1.63;1.53;;;13.20;99.90;;;;;;5076262;28;20202;-71
2022/06/15 03:26:42;;;;;;;0.90;0.80;;;13.20;99.90;;;;;;5095541;28;20185;-73
2022/06/15 03:29:08;;;;;;;0.80;0.73;;;13.20;99.90;;;;;;5094396;28;20447;-73
2022/06/15 03:31:35;;;;;;;0.90;0.67;;;13.10;99.90;;;;;;5095390;28;20170;-72
2022/06/15 03:34:00;;;;;;;0.90;0.70;;;13.20;99.90;;;;;;5095942;28;20419;-72
2022/06/15 03:36:26;;;;;;;1.10;1.00;;;13.10;99.90;;;;;;5075723;28;20445;-72
2022/06/15 03:38:51;;;;;;;1.10;0.90;;;13.10;99.90;;;;;;5074937;28;20223;-73
2022/06/15 03:41:19;;;;;;;0.90;0.60;;;13.10;99.90;;;;;;5075044;28;20170;-72
2022/06/15 03:43:45;;;;;;;0.90;0.80;;;13.10;99.90;;;;;;5074840;28;20194;-72
2022/06/15 03:46:12;;;;;;;0.90;0.60;;;13.10;99.90;;;;;;5090227;28;20466;-73
2022/06/15 03:48:37;;;;;;;1.10;0.70;;;13.10;99.90;;;;;;5095782;28;20470;-72
2022/06/15 03:51:03;;;;;;;0.83;0.63;;;13.10;99.90;;;;;;5095916;28;20422;-72
2022/06/15 03:53:29;;;;;;;0.90;0.67;;;13.10;99.90;;;;;;5095431;28;20169;-72
2022/06/15 03:55:55;;;;;;;0.80;0.50;;;13.10;99.90;;;;;;5080440;28;20424;-72
2022/06/15 03:58:21;;;;;;;1.13;0.80;;;13.20;99.90;;;;;;5074058;28;20194;-72
2022/06/15 04:00:47;;;;;;;1.00;0.80;;;13.20;99.90;;;;;;5074993;28;20170;-73
2022/06/15 04:03:13;;;;;;;0.80;0.50;;;13.20;99.90;;;;;;5075034;28;20173;-72
2022/06/15 04:05:49;;;;;;;0.80;0.50;;;13.20;99.90;;;;;;5085971;28;20407;-72
2022/06/15 04:08:37;;;;;;;1.07;0.97;;;13.20;99.90;;;;;;5091844;28;20180;-72
2022/06/15 04:11:06;;;;;;;0.90;0.67;;;13.30;99.90;;;;;;5094328;28;20400;-72
2022/06/15 04:13:32;;;;;;;0.90;0.67;;;13.30;99.90;;;;;;5095265;28;20487;-72
2022/06/15 04:15:58;;;;;;;0.90;0.60;;;13.30;99.90;;;;;;5077435;28;20918;-72
2022/06/15 04:18:24;;;;;;;0.80;0.70;;;13.40;99.90;;;;;;5073605;28;20409;-72
2022/06/15 04:20:50;;;;;;;2.53;1.03;;;13.40;99.90;;;;;;5075481;28;20173;-72
2022/06/15 04:23:18;;;;;;;0.80;0.60;;;13.40;99.90;;;;;;5075069;28;20474;-73
2022/06/15 04:25:51;;;;;;;1.00;0.80;;;13.50;99.90;;;;;;5089579;28;20422;-72
2022/06/15 04:28:18;;;;;;;0.80;0.60;;;13.50;99.90;;;;;;5095234;28;20442;-72
2022/06/15 04:30:43;;;;;;;1.10;0.87;;;13.60;99.90;;;;;;5093696;28;20498;-72
2022/06/15 04:33:12;;;;;;;1.20;0.80;;;13.60;99.90;;;;;;5095130;28;20832;-72
2022/06/15 04:35:37;;;;;;;0.80;0.73;;;13.70;99.90;;;;;;5081301;28;20166;-72
2022/06/15 04:38:04;;;;;;;1.40;1.10;;;13.70;99.90;;;;;;5075003;28;20770;-72
2022/06/15 04:40:30;;;;;;;0.80;0.70;;;13.80;99.90;;;;;;5074505;28;20407;-72
2022/06/15 04:42:57;;;;;;;2.13;1.50;;;13.90;99.90;;;;;;5074426;28;21052;-72
2022/06/15 04:45:22;;;;;;;0.80;0.70;;;13.90;99.90;;;;;;5084400;28;20482;-73
2022/06/15 04:47:48;;;;;;;1.67;1.23;;;14.00;99.90;;;;;;5095065;28;21005;-72
2022/06/15 04:50:14;;;;;;;0.97;0.70;;;14.00;99.90;;;;;;5094048;28;20523;-72
2022/06/15 04:52:44;;;;;;;1.43;1.33;;;14.10;99.90;;;;;;5094493;28;20399;-72
2022/06/15 04:55:11;;;;;;;1.17;0.80;;;14.20;99.90;;;;;;5084747;28;20727;-72
2022/06/15 04:57:37;;;;;;;0.80;0.77;;;14.20;99.90;;;;;;5074342;28;20448;-72
2022/06/15 05:00:11;;;;;;;1.10;0.80;;;14.30;99.90;;;;;;5073880;28;20404;-72
2022/06/15 05:02:36;;;;;;;1.03;0.83;;;14.40;99.90;;;;;;5092850;28;20173;-72
2022/06/15 05:05:03;;;;;;;1.00;0.90;;;14.40;99.90;;;;;;5085381;28;20448;-72
2022/06/15 05:07:29;;;;;;;1.37;1.00;;;14.50;99.90;;;;;;5073173;28;20379;-73
2022/06/15 05:09:54;;;;;;;1.77;1.07;;;14.60;99.90;;;;;;5072972;28;21153;-73
2022/06/15 05:12:20;;;;;;;0.90;0.63;;;14.70;99.90;;;;;;5073033;28;20181;-73
2022/06/15 05:14:49;;;;;;;2.33;1.20;;;14.70;99.90;;;;;;5085646;28;20262;-72
2022/06/15 05:17:15;;;;;;;0.80;0.60;;;14.80;99.90;;;;;;5093062;28;20196;-72
2022/06/15 05:19:41;;;;;;;0.90;0.80;;;14.90;99.90;;;;;;5093016;28;20842;-72
2022/06/15 05:22:06;;;;;;;1.00;0.70;;;15.00;99.90;;;;;;5093109;28;20403;-72
2022/06/15 05:24:32;;;;;;;1.40;1.27;;;15.10;99.90;;;;;;5080869;28;20190;-71
2022/06/15 05:26:58;;;;;;;2.30;1.13;;;15.10;99.90;;;;;;5072104;28;20189;-72
2022/06/15 05:29:24;;;;;;;1.30;0.97;;;15.20;99.90;;;;;;5074453;28;20162;-71
2022/06/15 05:31:51;;;;;;;1.10;0.80;;;15.40;99.90;;;;;;5075963;28;20177;-72
2022/06/15 05:34:16;;;;;;;1.40;1.20;;;15.40;99.90;;;;;;5076450;28;20504;-72
2022/06/15 05:36:42;;;;;;;0.80;0.60;;;15.50;99.90;;;;;;5088427;28;20518;-71
2022/06/15 05:39:09;;;;;;;3.17;1.33;;;15.70;99.90;;;;;;5096527;28;20212;-73
2022/06/15 05:41:35;;;;;;;4.30;0.80;;;15.70;99.90;;;;;;5096720;28;20161;-73
2022/06/15 05:44:02;;;;;;;1.90;1.20;;;15.90;99.90;;;;;;5096237;28;20964;-73
2022/06/15 05:46:31;;;;;;;1.10;0.80;;;16.00;99.90;;;;;;5093411;28;20186;-73
2022/06/15 05:48:58;;;;;;;1.40;1.20;;;16.10;99.90;;;;;;5075610;28;20413;-71
2022/06/15 05:51:24;;;;;;;1.30;1.10;;;16.20;99.90;;;;;;5074258;28;20772;-73
2022/06/15 05:53:50;;;;;;;2.40;1.10;;;16.40;99.90;;;;;;5074591;28;21022;-73
2022/06/15 05:56:17;;;;;;;0.93;0.80;;;16.50;99.90;;;;;;5077607;28;20440;-73
2022/06/15 05:58:43;;;;;;;1.50;0.93;;;16.60;99.90;;;;;;5095031;28;20169;-72
2022/06/15 06:01:18;;;;;;;1.47;1.33;;;16.80;99.90;;;;;;5096158;28;20399;-73
2022/06/15 06:03:44;;;;;;;1.30;1.20;;;17.00;99.90;;;;;;5096242;28;20472;-74
2022/06/15 06:06:10;;;;;;;6.93;1.70;;;17.30;99.90;;;;;;5096219;28;20423;-73
2022/06/15 06:08:36;;;;;;;1.10;0.87;;;17.50;99.90;;;;;;5090228;28;20166;-73
2022/06/15 06:11:01;;;;;;;1.77;1.67;;;17.80;99.90;;;;;;5076073;28;20454;-73
2022/06/15 06:13:27;;;;;;;1.10;1.00;;;18.10;99.90;;;;;;5076228;28;20201;-73
2022/06/15 06:15:55;;;;;;;2.30;2.10;;;18.40;99.90;;;;;;5075446;28;20232;-71
2022/06/15 06:18:21;;;;;;;1.33;1.23;;;18.70;99.90;;;;;;5076426;28;20914;-74
2022/06/15 06:20:47;;;;;;;1.63;1.00;;;19.00;99.90;;;;;;5082843;28;20415;-73
2022/06/15 06:23:14;;;;;;;1.20;1.07;;;19.30;99.90;;;;;;5096364;28;21173;-73
2022/06/15 06:25:41;;;;;;;1.90;1.43;;;19.80;99.90;;;;;;5095364;28;20221;-73
2022/06/15 06:28:09;;;;;;;3.07;2.00;;;20.20;99.90;;;;;;5097429;28;20487;-73
2022/06/15 06:30:36;;;;;;;2.60;2.40;;;20.80;99.90;;;;;;5097624;28;20402;-73
2022/06/15 06:33:02;;;;;;;1.53;1.43;;;21.30;99.90;;;;;;5089235;28;20416;-73
2022/06/15 06:35:28;;;;;;;2.53;1.57;;;21.80;99.90;;;;;;5076305;28;20839;-72
2022/06/15 06:37:55;;;;;;;1.63;1.53;;;22.50;99.90;;;;;;5077292;28;20659;-73
2022/06/15 06:40:20;;;;;;;1.63;1.53;;;23.10;99.90;;;;;;5076651;28;20186;-73
2022/06/15 06:42:46;;;;;;;2.93;2.20;;;23.60;99.90;;;;;;5077672;28;20749;-72
2022/06/15 06:45:12;;;;;;;1.60;1.50;;;24.20;99.90;;;;;;5085943;28;20216;-73
2022/06/15 06:47:38;;;;;;;1.30;1.20;;;24.80;99.90;;;;;;5096745;28;20617;-74
2022/06/15 06:50:04;;;;;;;1.77;1.50;;;25.40;99.90;;;;;;5097172;28;20404;-73
2022/06/15 06:52:29;;;;;;;1.87;1.63;;;26.00;99.90;;;;;;5096849;28;20208;-74
2022/06/15 06:54:55;;;;;;;1.40;1.30;;;26.60;99.90;;;;;;5096745;28;20420;-74
2022/06/15 06:57:20;;;;;;;2.40;1.60;;;27.20;99.90;;;;;;5085804;28;20206;-73
2022/06/15 06:59:46;;;;;;;1.63;1.33;;;27.70;99.90;;;;;;5074715;28;20540;-73
2022/06/15 07:02:11;;;;;;;1.03;0.90;;;28.30;99.90;;;;;;5075362;28;20645;-73
2022/06/15 07:04:37;;;;;;;1.87;1.53;;;28.90;99.90;;;;;;5074118;28;20197;-74
2022/06/15 07:07:02;;;;;;;1.83;1.73;;;29.40;99.90;;;;;;5074900;28;20190;-72
2022/06/15 07:09:29;;;;;;;1.10;1.00;;;29.80;98.70;;;;;;5083786;28;20177;-74
2022/06/15 07:11:55;;;;;;;1.63;1.17;;;30.30;95.60;;;;;;5095131;28;20166;-73
2022/06/15 07:14:21;;;;;;;1.30;1.13;;;30.80;92.80;;;;;;5094040;28;20773;-73
2022/06/15 07:16:46;;;;;;;1.80;1.60;;;31.30;89.00;;;;;;5095074;28;20193;-73
2022/06/15 07:19:12;;;;;;;1.47;1.37;;;31.80;81.50;;;;;;5094826;28;20560;-74
2022/06/15 07:21:39;;;;;;;1.57;1.33;;;32.30;76.40;;;;;;5085665;28;20182;-73
2022/06/15 07:24:05;;;;;;;1.30;1.20;;;32.80;71.30;;;;;;5074345;28;20225;-74
2022/06/15 07:26:38;;;;;;;1.70;1.23;;;33.50;68.70;;;;;;5073973;28;20462;-74
2022/06/15 07:29:03;;;;;;;1.93;1.67;;;34.20;63.80;;;;;;5076484;28;20950;-74
2022/06/15 07:31:33;;;;;;;1.30;1.20;;;35.10;59.40;;;;;;5077309;28;20455;-74
2022/06/15 07:34:00;;;;;;;1.43;1.30;;;35.90;57.20;;;;;;5091019;28;20264;-74
2022/06/15 07:36:26;;;;;;;1.17;1.07;;;36.90;54.40;;;;;;5092998;28;20439;-74
2022/06/15 07:38:53;;;;;;;1.37;1.27;;;37.80;51.20;;;;;;5093868;28;20406;-75
2022/06/15 07:41:20;;;;;;;1.20;1.10;;;38.50;49.20;;;;;;5095076;28;20414;-74
2022/06/15 07:43:45;;;;;;;1.10;1.00;;;39.40;47.10;;;;;;5094790;28;20422;-74
2022/06/15 07:46:11;;;;;;;1.67;1.27;;;40.30;44.90;;;;;;5091503;28;20430;-75
2022/06/15 07:51:32;;;;;;;1.40;1.30;;;41.90;41.40;;;;;;5073713;28;20410;-73
2022/06/15 07:53:59;;;;;;;1.47;1.37;;;42.90;39.70;;;;;;5075375;28;20409;-74
2022/06/15 07:56:25;;;;;;;1.47;1.37;;;43.70;38.20;;;;;;5077270;28;20816;-73
2022/06/15 07:58:51;;;;;;;1.57;1.47;;;44.50;37.20;;;;;;5093050;28;20390;-74
2022/06/15 08:01:17;;;;;;;1.83;1.73;;;45.30;35.70;;;;;;5094845;28;20756;-73
2022/06/15 08:03:43;;;;;;;1.63;1.40;;;46.00;34.50;;;;;;5094945;28;20433;-74
2022/06/15 08:06:09;;;;;;;1.50;1.40;;;46.80;33.60;;;;;;5092593;28;20210;-73
2022/06/15 08:08:34;;;;;;;1.30;1.20;;;47.40;32.50;;;;;;5072890;28;20172;-73
2022/06/15 08:11:00;;;;;;;2.07;1.80;;;48.10;31.50;;;;;;5075894;28;20216;-74
2022/06/15 08:13:26;;;;;;;1.60;1.50;;;48.80;30.30;;;;;;5076533;28;20776;-75
2022/06/15 08:15:52;;;;;;;1.53;1.43;;;49.50;29.70;;;;;;5074450;28;20269;-73
2022/06/15 08:18:23;;;;;;;1.40;1.30;;;50.10;29.30;;;;;;5093188;28;20686;-73
2022/06/15 08:20:56;;;;;;;4.20;1.40;;;50.80;28.80;;;;;;5095118;28;20765;-73
2022/06/15 08:23:24;;;;;;;1.67;1.57;;;51.40;28.20;;;;;;5095189;28;20378;-73
2022/06/15 08:25:55;;;;;;;1.63;1.53;;;52.00;27.60;;;;;;5094457;28;20383;-74
2022/06/15 08:28:23;;;;;;;1.80;1.70;;;52.60;27.10;;;;;;5093919;28;20415;-74
2022/06/15 08:30:49;;;;;;;1.90;1.80;;;53.20;26.60;;;;;;5092097;28;20400;-73
2022/06/15 08:33:15;;;;;;;2.27;2.00;;;53.80;25.80;;;;;;5093889;28;20797;-74
2022/06/15 08:35:41;;;;;;;1.90;1.80;;;54.30;25.60;;;;;;5092513;28;20407;-73
2022/06/15 08:38:09;;;;;;;1.87;1.77;;;54.90;25.20;;;;;;5076061;28;20980;-74
2022/06/15 08:41:00;;;;;;;1.80;1.70;;;55.40;24.60;;;;;;5073179;28;20303;-74
2022/06/15 08:43:38;;;;;;;1.63;1.53;;;56.00;24.40;;;;;;5041560;28;20460;-73
2022/06/15 08:46:26;;;;;;;1.77;1.67;;;56.70;24.10;;;;;;5072666;28;20424;-72
2022/06/15 08:49:23;;;;;;;2.10;2.00;;;57.30;23.70;;;;;;5073342;28;20793;-72
2022/06/15 08:52:03;;;;;;;2.40;2.30;;;57.80;23.40;;;;;;5073443;28;20545;-74
2022/06/15 08:54:36;;;;;;;2.20;2.10;;;58.40;23.00;;;;;;5075534;28;20534;-74
2022/06/15 08:57:09;;;;;;;2.10;2.00;;;58.80;22.60;;;;;;5085956;28;20434;-74
2022/06/15 08:59:57;;;;;;;2.93;2.83;;;59.30;22.50;;;;;;5095621;28;20415;-74
2022/06/15 09:02:22;;;;;;;2.83;2.73;;;59.80;22.10;;;;;;5097101;28;20418;-73
2022/06/15 09:04:51;;;;;;;2.50;2.40;;;60.20;21.70;;;;;;5101380;28;20403;-73
2022/06/15 09:07:34;;;;;;;2.70;2.50;;;60.70;21.60;;;;;;5089131;28;20185;-74
2022/06/15 09:10:26;;;;;;;3.00;2.90;;;61.10;21.10;;;;;;5080499;28;20631;-74
2022/06/15 09:13:27;;;;;;;2.90;2.80;;;61.60;21.00;;;;;;5080601;28;20430;-74
2022/06/15 09:16:03;;;;;;;3.43;3.33;;;62.10;20.60;;;;;;5081624;28;20459;-73
2022/06/15 09:18:37;;;;;;;3.07;2.97;;;62.50;20.50;;;;;;5080770;28;20400;-73
2022/06/15 09:21:25;;;;;;;3.37;3.27;;;62.80;20.30;;;;;;5079893;28;20434;-74
2022/06/15 09:23:59;;;;;;;4.63;4.53;;;63.20;20.20;;;;;;5077939;28;20399;-74
2022/06/15 09:26:44;;;;;;;3.50;3.40;;;63.50;20.00;;;;;;5083056;28;20901;-75
2022/06/15 09:29:20;;;;;;;3.83;3.73;;;63.90;19.80;;;;;;5098732;28;20758;-72
2022/06/15 09:32:08;;;;;;;4.00;3.90;;;64.00;19.40;;;;;;5097392;28;20410;-73
2022/06/15 09:34:38;;;;;;;3.80;3.70;;;64.30;19.40;;;;;;5082622;28;20455;-73
2022/06/15 09:37:10;;;;;;;4.00;3.90;;;64.70;19.40;;;;;;5084619;28;20435;-73
2022/06/15 09:39:36;;;;;;;4.00;3.90;;;64.90;19.20;;;;;;5076815;28;20403;-73
2022/06/15 09:42:05;;;;;;;4.50;4.30;;;65.00;19.10;;;;;;5076573;28;20391;-73
2022/06/15 09:44:40;;;;;;;4.73;4.63;;;65.10;19.00;;;;;;5075026;28;20260;-72
2022/06/15 09:47:24;;;;;;;4.70;4.50;;;65.20;18.70;;;;;;5088518;28;20445;-73
2022/06/15 09:50:22;;;;;;;4.50;4.40;;;65.40;18.60;;;;;;5096955;28;20517;-73
2022/06/15 09:52:59;;;;;;;4.97;4.88;;;65.50;18.60;;;;;;5096078;28;20407;-73
2022/06/15 09:55:38;;;;;;;5.28;5.15;;;65.60;18.50;;;;;;5096082;28;20192;-73
2022/06/15 09:58:07;;;;;;;5.93;5.72;;;65.70;18.40;;;;;;5077269;28;20189;-74
2022/06/15 10:00:36;;;;;;;4.95;4.85;;;65.60;18.40;;;;;;5076767;28;20166;-73
2022/06/15 10:03:06;;;;;;;5.00;4.90;;;65.60;18.30;;;;;;5076181;28;20722;-74
2022/06/15 10:05:37;;;;;;;5.20;5.10;;;65.80;18.30;;;;;;5076104;28;20277;-71
2022/06/15 10:08:10;;;;;;;5.78;5.57;;;65.80;18.30;;;;;;5095554;28;20196;-73
2022/06/15 10:10:48;;;;;;;5.55;5.35;;;65.80;18.10;;;;;;5097151;28;20168;-73
2022/06/15 10:13:19;;;;;;;5.22;5.13;;;65.70;17.90;;;;;;5097258;28;20252;-73
2022/06/15 10:15:55;;;;;;;5.93;5.72;;;65.60;18.00;;;;;;5096525;28;20277;-73
2022/06/15 10:18:44;;;;;;;4.82;4.72;;;65.80;18.00;;;;;;5077544;28;20177;-73
2022/06/15 10:21:12;;;;;;;5.95;5.75;;;65.80;17.90;;;;;;5078676;28;20194;-73
2022/06/15 10:23:50;;;;;;;6.15;5.95;;;65.80;17.80;;;;;;5077850;28;20547;-73
2022/06/15 10:26:27;;;;;;;6.00;5.80;;;65.80;17.80;;;;;;5080687;28;20188;-74
2022/06/15 10:28:53;;;;;;;5.35;5.20;;;65.80;17.80;;;;;;5099248;28;20226;-74
2022/06/15 10:31:27;;;;;;;6.13;5.93;;;65.90;17.80;;;;;;5096133;28;20180;-73
2022/06/15 10:33:55;;;;;;;5.40;5.30;;;65.90;17.80;;;;;;5096686;28;20291;-73
2022/06/15 10:36:22;;;;;;;5.40;5.20;;;65.90;17.70;;;;;;5096841;28;20185;-73
2022/06/15 10:38:54;;;;;;;5.90;5.70;;;65.90;17.70;;;;;;5081130;28;20174;-73
2022/06/15 10:41:47;;;;;;;5.63;5.43;;;66.10;17.80;;;;;;5080359;28;20193;-73
2022/06/15 10:44:18;;;;;;;5.10;5.00;;;66.10;17.60;;;;;;5078390;28;20170;-71
2022/06/15 10:46:58;;;;;;;5.55;5.35;;;66.10;17.40;;;;;;5085452;28;20189;-73
2022/06/15 10:49:24;;;;;;;6.57;6.38;;;66.10;17.50;;;;;;5100479;28;20221;-73
2022/06/15 10:51:51;;;;;;;5.32;5.22;;;66.10;17.40;;;;;;5100443;28;20173;-73
2022/06/15 10:54:17;;;;;;;5.53;5.32;;;66.20;17.50;;;;;;5099872;28;20197;-73
2022/06/15 11:02:25;;;;;;;6.32;6.13;;;66.20;17.50;;;;;;5099773;28;20219;-72
2022/06/15 11:04:57;;;;;;;6.00;5.80;;;66.20;17.40;;;;;;5097870;28;20188;-73
2022/06/15 11:07:22;;;;;;;6.95;6.75;;;66.20;17.30;;;;;;5088010;28;20280;-73
2022/06/15 11:09:53;;;;;;;6.05;5.85;;;66.20;17.20;;;;;;5079152;28;20202;-73
2022/06/15 11:12:36;;;;;;;5.50;5.40;;;66.40;17.30;;;;;;5078926;28;20173;-73
2022/06/15 11:15:14;;;;;;;5.90;5.70;;;66.40;17.20;;;;;;5078075;28;20201;-73
2022/06/15 11:18:04;;;;;;;6.25;6.05;;;66.40;17.10;;;;;;5091154;28;20219;-72
2022/06/15 11:21:00;;;;;;;6.03;5.82;;;66.40;17.10;;;;;;5100927;28;20173;-73
2022/06/15 11:23:49;;;;;;;5.78;5.57;;;66.50;17.00;;;;;;5099673;28;20199;-73
2022/06/15 11:29:36;;;;;;;5.35;5.25;;;66.40;16.90;;;;;;5078211;28;20171;-72
2022/06/15 11:32:10;;;;;;;5.50;5.30;;;66.20;16.80;;;;;;5080428;28;20529;-73
2022/06/15 11:34:40;;;;;;;6.40;6.20;;;66.10;16.70;;;;;;5078867;28;20533;-73
2022/06/15 11:37:20;;;;;;;5.45;5.28;;;66.10;16.80;;;;;;5085170;28;20185;-74
2022/06/15 11:39:56;;;;;;;6.43;6.22;;;66.10;16.90;;;;;;5099180;28;20165;-73
2022/06/15 11:42:24;;;;;;;5.70;5.50;;;66.00;16.80;;;;;;5097589;28;20161;-73
2022/06/15 11:44:51;;;;;;;6.00;5.80;;;66.00;16.90;;;;;;5098261;28;20232;-72
2022/06/15 11:47:31;;;;;;;6.20;6.00;;;65.80;16.70;;;;;;5090446;28;20186;-75
2022/06/15 11:50:27;;;;;;;6.07;5.88;;;65.80;16.70;;;;;;5078773;28;20162;-73
2022/06/15 11:52:53;;;;;;;4.95;4.85;;;65.60;16.60;;;;;;5078484;28;20248;-72
2022/06/15 11:55:23;;;;;;;5.93;5.72;;;65.40;16.70;;;;;;5077939;28;20204;-73
2022/06/15 11:57:52;;;;;;;5.72;5.53;;;65.40;16.80;;;;;;5090817;28;20218;-72
2022/06/15 12:00:41;;;;;;;5.63;5.43;;;65.40;16.90;;;;;;5099483;28;20172;-73
2022/06/15 12:03:31;;;;;;;6.35;6.15;;;65.40;17.00;;;;;;5099580;28;20196;-73
2022/06/15 12:06:06;;;;;;;6.88;6.68;;;65.40;17.00;;;;;;5096726;28;20173;-73
2022/06/15 12:08:52;;;;;;;5.65;5.45;;;65.30;16.90;;;;;;5078281;28;20177;-73
2022/06/15 12:14:18;;;;;;;5.15;5.05;;;64.90;16.90;;;;;;5074777;28;20208;-72
2022/06/15 12:17:16;;;;;;;5.20;5.00;;;64.90;17.00;;;;;;5079820;28;20215;-72
2022/06/15 12:20:28;;;;;;;5.25;5.10;;;64.60;16.80;;;;;;5049132;28;20226;-73
2022/06/15 12:23:11;;;;;;;5.10;4.90;;;64.50;16.90;;;;;;5071539;28;20177;-73
2022/06/15 12:25:51;;;;;;;4.40;4.30;;;64.40;16.80;;;;;;5098775;28;20259;-74
2022/06/15 12:28:44;;;;;;;5.60;5.40;;;64.10;16.70;;;;;;5081565;28;20408;-73
2022/06/15 12:31:37;;;;;;;4.73;4.63;;;63.80;16.80;;;;;;5076712;28;20432;-73
2022/06/15 12:34:19;;;;;;;4.07;3.97;;;63.60;16.70;;;;;;5076742;28;20412;-73
2022/06/15 12:37:07;;;;;;;4.90;4.77;;;63.30;16.60;;;;;;5076238;28;20419;-72
2022/06/15 12:39:48;;;;;;;4.40;4.27;;;63.10;16.90;;;;;;5076226;28;20407;-73
2022/06/15 12:42:17;;;;;;;3.97;3.87;;;63.00;17.00;;;;;;5075220;28;20767;-72
2022/06/15 12:45:08;;;;;;;4.13;4.03;;;62.90;17.10;;;;;;5072548;28;20458;-73
2022/06/15 12:47:37;;;;;;;3.90;3.80;;;62.80;17.10;;;;;;5079529;28;20517;-72
2022/06/15 12:50:34;;;;;;;3.93;3.83;;;62.50;17.00;;;;;;5095984;28;20406;-73
2022/06/15 12:53:27;;;;;;;3.77;3.67;;;62.30;17.20;;;;;;5094830;28;20422;-73
2022/06/15 12:55:52;;;;;;;3.60;3.50;;;62.10;17.20;;;;;;5095494;28;20418;-73
2022/06/15 12:58:36;;;;;;;3.70;3.60;;;61.60;17.00;;;;;;5075824;28;20997;-73
2022/06/15 13:01:15;;;;;;;3.37;3.27;;;61.00;17.20;;;;;;5074631;28;20192;-73
2022/06/15 13:03:47;;;;;;;2.60;2.50;;;60.20;17.30;;;;;;5074751;28;20546;-72
2022/06/15 13:06:24;;;;;;;2.50;2.40;;;59.10;17.40;;;;;;5073684;28;20455;-72
2022/06/15 13:09:11;;;;;;;2.10;2.00;;;57.90;17.70;;;;;;5096860;28;20466;-72
2022/06/15 13:12:09;;;;;;;2.20;2.10;;;56.50;17.90;;;;;;5097113;28;20461;-72
2022/06/15 13:14:36;;;;;;;2.03;1.93;;;55.10;18.00;;;;;;5096905;28;20789;-72
2022/06/15 13:17:12;;;;;;;2.17;2.00;;;53.60;18.30;;;;;;5086728;28;20440;-72
2022/06/15 13:19:45;;;;;;;1.63;1.53;;;52.20;18.60;;;;;;5071353;28;20481;-72
2022/06/15 13:22:31;;;;;;;1.50;1.40;;;50.80;19.10;;;;;;5072992;28;20934;-72
2022/06/15 13:25:03;;;;;;;1.60;1.50;;;49.60;19.40;;;;;;5074331;28;20464;-75
2022/06/15 13:27:32;;;;;;;1.43;1.33;;;48.30;19.90;;;;;;5086711;28;20431;-72